createdAt,value
2022-11-02T00:04:52.684Z,23.1
2022-11-02T00:09:59.558Z,23.1
2022-11-02T00:15:06.210Z,23.1
2022-11-02T00:20:27.284Z,23.1
2022-11-02T00:25:49.516Z,23.1
2022-11-02T00:31:13.089Z,23.1
2022-11-02T00:36:34.866Z,23.1
2022-11-02T00:42:16.437Z,23.1
2022-11-02T00:47:38.243Z,23.1
2022-11-02T00:53:15.446Z,23.1
2022-11-02T00:58:58.065Z,23.1
2022-11-02T01:04:36.395Z,23.1
2022-11-02T01:10:13.354Z,23.2
2022-11-02T01:15:52.763Z,23.2
2022-11-02T01:20:59.834Z,23.1
2022-11-02T01:26:20.749Z,23.2
2022-11-02T01:31:58.677Z,23.2
2022-11-02T01:37:20.314Z,23.2
2022-11-02T01:42:41.790Z,23.2
2022-11-02T01:48:04.430Z,23.2
2022-11-02T01:53:26.604Z,23.2
2022-11-02T01:58:02.169Z,23.2
2022-11-02T02:02:52.979Z,23.2
2022-11-02T02:08:13.182Z,23.2
2022-11-02T02:13:34.175Z,23.3
2022-11-02T02:18:45.900Z,23.3
2022-11-02T02:23:51.583Z,23.3
2022-11-02T02:28:57.674Z,23.3
2022-11-02T02:34:04.581Z,23.3
2022-11-02T02:39:26.195Z,23.3
2022-11-02T02:44:48.076Z,23.3
2022-11-02T02:50:10.532Z,23.3
2022-11-02T02:55:31.742Z,23.3
2022-11-02T03:01:09.634Z,23.3
2022-11-02T03:06:16.821Z,23.3
2022-11-02T03:11:53.454Z,23.3
2022-11-02T03:17:15.376Z,23.3
2022-11-02T03:22:37.611Z,23.3
2022-11-02T03:27:59.320Z,23.3
2022-11-02T03:33:05.942Z,23.3
2022-11-02T03:37:56.699Z,23.3
2022-11-02T03:43:17.602Z,23.4
2022-11-02T03:48:39.731Z,23.3
2022-11-02T03:53:45.842Z,23.3
2022-11-02T03:59:07.194Z,23.4
2022-11-02T04:04:29.790Z,23.4
2022-11-02T04:09:38.340Z,23.3
2022-11-02T04:14:59.358Z,23.4
2022-11-02T04:20:09.029Z,23.4
2022-11-02T04:25:30.322Z,23.4
2022-11-02T04:31:07.119Z,23.4
2022-11-02T04:36:44.489Z,23.4
2022-11-02T04:42:22.548Z,23.4
2022-11-02T04:48:02.999Z,23.4
2022-11-02T04:53:13.133Z,23.4
2022-11-02T04:58:35.268Z,23.4
2022-11-02T05:03:46.402Z,23.4
2022-11-02T05:09:30.075Z,23.4
2022-11-02T05:15:06.887Z,23.4
2022-11-02T05:20:49.605Z,23.5
2022-11-02T05:26:11.992Z,23.5
2022-11-02T05:31:54.600Z,23.5
2022-11-02T05:37:32.545Z,23.4
2022-11-02T05:43:13.276Z,23.4
2022-11-02T05:48:50.076Z,23.3
2022-11-02T05:54:12.890Z,23.3
2022-11-02T05:59:35.414Z,23
2022-11-02T06:04:44.840Z,22.9
2022-11-02T06:09:57.442Z,22.9
2022-11-02T06:15:19.935Z,22.9
2022-11-02T06:20:41.001Z,22.8
2022-11-02T06:26:03.259Z,22.8
2022-11-02T06:31:26.462Z,22.8
2022-11-02T06:37:04.392Z,22.7
2022-11-02T06:42:26.060Z,25.6
2022-11-02T06:48:33.266Z,29.6
2022-11-02T06:54:12.880Z,27.5
2022-11-02T06:59:04.492Z,31
2022-11-02T07:04:28.605Z,34.3
2022-11-02T07:09:38.887Z,35.3
2022-11-02T07:15:17.239Z,36.1
2022-11-02T07:20:40.814Z,36.9
2022-11-02T07:26:18.340Z,37.6
2022-11-02T07:31:41.094Z,37
2022-11-02T07:37:24.364Z,36.2
2022-11-02T07:43:02.602Z,36.8
2022-11-02T07:48:44.052Z,37.8
2022-11-02T07:54:26.937Z,37.4
2022-11-02T07:59:50.795Z,38.3
2022-11-02T08:05:18.086Z,39.3
2022-11-02T08:10:40.698Z,40.2
2022-11-02T08:16:02.988Z,41
2022-11-02T08:21:25.664Z,41.6
2022-11-02T08:26:50.966Z,42.3
2022-11-02T08:31:45.708Z,43.1
2022-11-02T08:37:12.749Z,43.8
2022-11-02T08:42:42.406Z,44.3
2022-11-02T08:48:45.963Z,43.9
2022-11-02T08:54:08.571Z,44.9
2022-11-02T08:59:30.504Z,45.6
2022-11-02T09:04:53.092Z,46.4
2022-11-02T09:10:18.938Z,47.1
2022-11-02T09:15:58.092Z,47.8
2022-11-02T09:21:20.520Z,48.3
2022-11-02T09:26:42.639Z,48.9
2022-11-02T09:32:15.044Z,49.4
2022-11-02T09:37:53.466Z,49.9
2022-11-02T09:43:32.744Z,50.4
2022-11-02T09:49:47.499Z,50.9
2022-11-02T09:55:28.630Z,51.4
2022-11-02T10:00:51.102Z,51.9
2022-11-02T10:06:14.096Z,52.3
2022-11-02T10:11:41.176Z,52.6
2022-11-02T10:16:48.094Z,53
2022-11-02T10:22:10.257Z,53.4
2022-11-02T10:27:47.753Z,53.7
2022-11-02T10:33:28.366Z,54.1
2022-11-02T10:39:53.622Z,54.4
2022-11-02T10:45:16.307Z,54.8
2022-11-02T10:50:44.945Z,55.1
2022-11-02T10:57:02.813Z,55.4
2022-11-02T11:02:10.723Z,55.6
2022-11-02T11:07:33.649Z,55.9
2022-11-02T11:12:57.100Z,56.1
2022-11-02T11:22:46.543Z,56.4
2022-11-02T11:28:12.920Z,56.6
2022-11-02T11:34:09.278Z,56.7
2022-11-02T11:39:34.882Z,56.8
2022-11-02T11:44:29.923Z,56.8
2022-11-02T11:49:55.394Z,56.9
2022-11-02T11:54:53.394Z,57
2022-11-02T12:00:00.621Z,57
2022-11-02T12:05:14.255Z,57.1
2022-11-02T12:10:42.165Z,57.2
2022-11-02T12:16:12.937Z,57.2
2022-11-02T12:21:34.923Z,57.1
2022-11-02T12:26:57.425Z,57.1
2022-11-02T12:32:03.701Z,57.1
2022-11-02T12:38:32.497Z,57
2022-11-02T12:43:55.809Z,56.9
2022-11-02T12:49:18.176Z,56.8
2022-11-02T12:54:26.805Z,56.6
2022-11-02T12:59:38.796Z,56.5
2022-11-02T13:05:05.668Z,56.3
2022-11-02T13:10:28.193Z,56.2
2022-11-02T13:15:44.876Z,55.9
2022-11-02T13:21:06.898Z,55.8
2022-11-02T13:26:36.754Z,55.5
2022-11-02T13:32:13.223Z,55.2
2022-11-02T13:37:24.884Z,54.9
2022-11-02T13:42:31.981Z,54.5
2022-11-02T13:47:54.349Z,54.2
2022-11-02T13:53:37.368Z,53.7
2022-11-02T13:58:48.925Z,53.3
2022-11-02T14:04:35.022Z,52.8
2022-11-02T14:10:12.741Z,52.3
2022-11-02T14:15:51.315Z,51.8
2022-11-02T14:21:33.558Z,51.2
2022-11-02T14:27:11.905Z,50.6
2022-11-02T14:32:54.261Z,49.8
2022-11-02T14:38:30.952Z,47.1
2022-11-02T14:44:11.364Z,45
2022-11-02T14:49:50.192Z,43.4
2022-11-02T14:55:13.506Z,42.4
2022-11-02T15:00:24.317Z,41.8
2022-11-02T15:06:07.019Z,41.2
2022-11-02T15:11:44.931Z,40.7
2022-11-02T15:17:26.588Z,40.2
2022-11-02T15:23:08.900Z,39.8
2022-11-02T15:28:40.262Z,39.4
2022-11-02T15:34:40.265Z,38.8
2022-11-02T15:40:51.925Z,37.8
2022-11-02T15:46:59.099Z,37.1
2022-11-02T15:52:06.260Z,36
2022-11-02T15:57:55.929Z,35
2022-11-02T16:03:33.846Z,34.3
2022-11-02T16:09:29.406Z,33.8
2022-11-02T16:15:31.584Z,32.8
2022-11-02T16:21:08.693Z,31.5
2022-11-02T16:26:33.093Z,30.8
2022-11-02T16:32:19.551Z,30.4
2022-11-02T16:38:00.073Z,30.1
2022-11-02T16:43:21.856Z,29.9
2022-11-02T16:48:51.682Z,29.8
2022-11-02T16:54:31.697Z,29.7
2022-11-02T17:00:12.535Z,29.6
2022-11-02T17:05:55.782Z,29.6
2022-11-02T17:11:17.597Z,29.5
2022-11-02T17:17:01.569Z,29.5
2022-11-02T17:22:40.054Z,29.4
2022-11-02T17:28:02.360Z,29.4
2022-11-02T17:33:24.535Z,29.4
2022-11-02T17:39:07.627Z,29.4
2022-11-02T17:49:21.838Z,29.4
2022-11-02T17:55:00.043Z,29.4
2022-11-02T17:59:51.078Z,29.3
2022-11-02T18:05:29.409Z,29.3
2022-11-02T18:11:12.459Z,29.3
2022-11-02T18:16:49.763Z,29.3
2022-11-02T18:22:26.884Z,29.3
2022-11-02T18:28:13.153Z,29.3
2022-11-02T18:33:35.496Z,29.3
2022-11-02T18:39:13.769Z,29.3
2022-11-02T18:44:40.698Z,29.3
2022-11-02T18:50:17.717Z,29.3
2022-11-02T18:55:47.263Z,29.3
2022-11-02T19:01:28.040Z,29.3
2022-11-02T19:07:10.017Z,29.3
2022-11-02T19:12:39.274Z,29.3
2022-11-02T19:18:01.485Z,29.3
2022-11-02T19:23:44.402Z,29.3
2022-11-02T19:29:23.235Z,29.2
2022-11-02T19:35:01.441Z,29.2
2022-11-02T19:40:42.089Z,29.2
2022-11-02T19:46:21.566Z,29.2
2022-11-02T19:52:03.801Z,29.2
2022-11-02T19:57:40.365Z,29.2
2022-11-02T20:03:18.516Z,29.2
2022-11-02T20:08:41.020Z,29.2
2022-11-02T20:14:03.157Z,29.2
2022-11-02T20:20:32.064Z,29.1
2022-11-02T20:26:01.083Z,29.1
2022-11-02T20:31:27.501Z,28.6
2022-11-02T20:36:52.721Z,27.6
2022-11-02T20:42:35.454Z,26.9
2022-11-02T20:48:49.319Z,26.4
2022-11-02T20:54:58.421Z,25.9
2022-11-02T21:00:20.849Z,25.7
2022-11-02T21:06:00.827Z,25.6
2022-11-02T21:11:41.347Z,25.4
2022-11-02T21:17:19.632Z,25.4
2022-11-02T21:23:25.193Z,25.3
2022-11-02T21:28:47.102Z,25.3
2022-11-02T21:34:25.684Z,25.2
2022-11-02T21:39:47.832Z,25.2
2022-11-02T21:45:26.549Z,25.1
2022-11-02T21:51:03.764Z,25.1
2022-11-02T21:56:42.012Z,25.1
2022-11-02T22:02:27.250Z,25.1
2022-11-02T22:08:10.338Z,25.1
2022-11-02T22:13:31.610Z,25.1
2022-11-02T22:19:38.757Z,25.1
2022-11-02T22:25:17.782Z,25.1
2022-11-02T22:30:54.833Z,25.2
2022-11-02T22:36:17.129Z,25.2
2022-11-02T22:41:54.529Z,25.1
2022-11-02T22:47:32.073Z,25.2
2022-11-02T22:52:58.778Z,25.2
2022-11-02T22:58:20.917Z,25.1
2022-11-02T23:03:43.958Z,25.2
2022-11-02T23:09:21.299Z,25.2
2022-11-02T23:14:59.360Z,25.2
2022-11-02T23:20:08.547Z,25.2
2022-11-02T23:25:46.145Z,25.2
2022-11-02T23:31:08.507Z,25.2
2022-11-02T23:36:30.843Z,25.2
2022-11-02T23:41:52.730Z,25.2
2022-11-02T23:47:14.551Z,25.2
2022-11-02T23:52:52.282Z,25.3
2022-11-02T23:58:28.402Z,25.2
